Nearby METAR Reports

 

KSEE - San Diego/Santee, California, USA
Distance from station: E 4mi, 6km
Updated: Wed, 25-Nov-2020 3:35am PST
Mist, Few clouds
Mist, Few clouds
 
Temperature: 46°F , 8°C
Dew Point: 45°F , 7°C
Humidity: 93%
Barometer: 30.09 inHg , 1019 hPa
Summary: Mist
Clouds: Few Clouds
Visibility: 4 miles , 6 km
Cloud details: Few Clouds 1200 ft
2020/11/25 11:35 KSEE 251135Z AUTO 4SM BR FEW012 08/07 A3009 RMK AO2
KMYF - San Diego/Mntgmy, California, USA
Distance from station: W 6mi, 10km
Updated: Wed, 25-Nov-2020 3:05am PST
Mostly cloudy
Mostly cloudy
 Wind from calm
Wind: Calm
Temperature: 52°F , 11°C
Dew Point: 46°F , 8°C
Humidity: 82%
Barometer: 30.09 inHg , 1019 hPa
Clouds: Mostly cloudy
Visibility: 9 miles , 14 km
Cloud details: Mostly cloudy 1100 ft
2020/11/25 11:05 KMYF 251105Z AUTO 00000KT 9SM BKN011 11/08 A3009 RMK AO2 T01060083
 
KNKX - Miramar Nas/San, California, USA
Distance from station: WNW 7mi, 11km
Updated: Wed, 25-Nov-2020 2:55am PST
Overcast
Overcast
 Wind from ENE
Wind: ENE 5 mph , 7 km/h
Temperature: 48°F , 9°C
Wind Chill: 46°F , 8°C
Dew Point: 48°F , 9°C
Humidity: 100%
Barometer: 30.08 inHg , 1018.6 hPa
Clouds: Overcast
Visibility: 10 miles , 16 km
Cloud details: Overcast 1000 ft
2020/11/25 10:55 KNKX 251055Z 07004KT 10SM OVC010 09/09 A3008 RMK AO2 SLP183 T00940089 $
KSAN - San Diego, California, USA
Distance from station: WSW 11mi, 17km
Updated: Wed, 25-Nov-2020 2:51am PST
Overcast
Overcast
 Wind from calm
Wind: Calm
Temperature: 54°F , 12°C
Dew Point: 48°F , 9°C
Humidity: 82%
Barometer: 30.10 inHg , 1019.3 hPa
Clouds: Overcast
Visibility: 9 miles , 14 km
Cloud details: Overcast 1600 ft
2020/11/25 10:51 KSAN 251051Z 00000KT 9SM OVC016 12/09 A3010 RMK AO2 SLP194 T01220094
 
KNZY - North Island Nas, California, USA
Distance from station: SW 13mi, 22km
Updated: Wed, 25-Nov-2020 2:52am PST
Mostly cloudy
Mostly cloudy
 Wind from calm
Wind: Calm
Temperature: 54°F , 12°C
Dew Point: 50°F , 10°C
Humidity: 88%
Barometer: 30.08 inHg , 1018.6 hPa
Clouds: Mostly cloudy
Visibility: 8 miles , 13 km
Cloud details: Mostly cloudy 1800 ft
2020/11/25 10:52 KNZY 251052Z 00000KT 8SM BKN018 12/10 A3008 RMK AO2 SLP187 T01170100
KRNM - Ramona, California, USA
Distance from station: NNE 16mi, 26km
Updated: Wed, 25-Nov-2020 2:57am PST
Mist, Clear
Mist, Clear
 Wind from calm
Wind: Calm
Temperature: 36°F , 2°C
Dew Point: 34°F , 1°C
Humidity: 93%
Barometer: 30.09 inHg , 1019 hPa
Summary: Mist
Clouds: Clear
Visibility: 3 miles , 5 km
2020/11/25 10:57 KRNM 251057Z AUTO 00000KT 3SM BR CLR 02/01 A3009 RMK AO2 T00170011
 
KSDM - San Diego/Brown, California, USA
Distance from station: S 16mi, 26km
Updated: Wed, 25-Nov-2020 2:53am PST
Mist, Clear
Mist, Clear
 Wind from E
Wind: E 5 mph , 7 km/h
Temperature: 45°F , 7°C
Wind Chill: 42°F , 6°C
Dew Point: 45°F , 7°C
Humidity: 100%
Barometer: 30.09 inHg , 1019 hPa
Summary: Mist
Clouds: Clear
Visibility: 6 miles , 10 km
2020/11/25 10:53 KSDM 251053Z AUTO 09004KT 6SM BR CLR 07/07 A3009 RMK AO2 SLP187 T00670067
KNRS - Imperial Beach, California, USA
Distance from station: SSW 18mi, 29km
Updated: Wed, 25-Nov-2020 3:22am PST
Mostly cloudy
Mostly cloudy
 
Barometer: 30.10 inHg , 1019.3 hPa
Clouds: Mostly cloudy
Visibility: 8 miles , 13 km
Cloud details: Mostly cloudy 1700 ft
2020/11/25 11:22 KNRS 251122Z AUTO 8SM BKN017 A3010 RMK AO2 $
 
MMTJ - Tijuana Intl Arp, Mexico
Distance from station: S 20mi, 32km
Updated: Wed, 25-Nov-2020 2:42am PST
Clear
Clear
 Wind from calm
Wind: Calm
Temperature: 50°F , 10°C
Dew Point: 46°F , 8°C
Humidity: 88%
Barometer: 30.11 inHg , 1019.6 hPa
Clouds: Clear
Visibility: 8 miles , 13 km
2020/11/25 10:42 MMTJ 251042Z 00000KT 8SM SKC 10/08 A3011 NOSIG RMK HZY MSG TX MMMX
KCRQ - Carlsbad, California, USA
Distance from station: NW 26mi, 43km
Updated: Wed, 25-Nov-2020 2:53am PST
Clear
Clear
 Wind from calm
Wind: Calm
Temperature: 52°F , 11°C
Dew Point: 46°F , 8°C
Humidity: 82%
Barometer: 30.07 inHg , 1018.3 hPa
Clouds: Clear
Visibility: 8 miles , 13 km
2020/11/25 10:53 KCRQ 251053Z AUTO 00000KT 8SM CLR 11/08 A3007 RMK AO2 SLP182 T01060078
 
KOKB - Oceanside, California, USA
Distance from station: NW 33mi, 54km
Updated: Wed, 25-Nov-2020 2:52am PST
Mist, Clear
Mist, Clear
 Wind from calm
Wind: Calm
Temperature: 43°F , 6°C
Dew Point: 43°F , 6°C
Humidity: 100%
Barometer: 30.09 inHg , 1019 hPa
Summary: Mist
Clouds: Clear
Visibility: 6 miles , 10 km
2020/11/25 10:52 KOKB 251052Z AUTO 00000KT 6SM BR CLR 06/06 A3009 RMK AO2 SLP188 T00560056
KCZZ - Campo, California, USA
Distance from station: ESE 35mi, 56km
Updated: Mon, 26-Oct-2020 8:52am PDT
NOT Current

 Wind from NE
Wind: NE 14 mph , 22 km/h, Gust: 20 mph , 31 km/h
Temperature: 48°F , 9°C
Wind Chill: 42°F , 6°C
Dew Point: 27°F , -3°C
Humidity: 43%
Barometer: 29.99 inHg , 1015.6 hPa
2020/10/26 15:52 KCZZ 261552Z AUTO 05012G17KT 09/M03 A2999 RMK AO1 SLP140 T00891028
 
KNFG - Camp Pendleton, California, USA
Distance from station: NNW 37mi, 59km
Updated: Wed, 25-Nov-2020 2:55am PST
Few Clouds
Few Clouds
 Wind from calm
Wind: Calm
Temperature: 46°F , 8°C
Dew Point: 36°F , 2°C
Humidity: 66%
Barometer: 30.09 inHg , 1019 hPa
Clouds: Few Clouds
Visibility: 10 miles , 16 km
Cloud details: Few Clouds 1100 ft
2020/11/25 10:55 KNFG 251055Z AUTO 00000KT 10SM FEW011 08/02 A3009 RMK AO2 SLP190 T00830022 $
KRIV - Riverside/March, California, USA
Distance from station: N 74mi, 119km
Updated: Wed, 25-Nov-2020 2:58am PST
Clear
Clear
 Wind from calm
Wind: Calm
Temperature: 36°F , 2°C
Dew Point: 30°F , -1°C
Humidity: 81%
Barometer: 30.08 inHg , 1018.6 hPa
Clouds: Clear
Visibility: 10 miles , 16 km
2020/11/25 10:58 KRIV 251058Z AUTO 00000KT 10SM CLR 02/M01 A3008 RMK AO2 SLP184 T00241010
 
KTRM - Thermal/Palm Spg, California, USA
Distance from station: NE 75mi, 121km
Updated: Wed, 25-Nov-2020 2:52am PST
Clear
Clear
 Wind from N
Wind: N 5 mph , 7 km/h
Temperature: 45°F , 7°C
Wind Chill: 42°F , 6°C
Dew Point: 30°F , -1°C
Humidity: 57%
Barometer: 30.07 inHg , 1018.3 hPa
Clouds: Clear
Visibility: 10 miles , 16 km
2020/11/25 10:52 KTRM 251052Z AUTO 01004KT 10SM CLR 07/M01 A3007 RMK AO2 SLP181 T00671011 $
KPSP - Palm Springs, California, USA
Distance from station: NNE 76mi, 122km
Updated: Wed, 25-Nov-2020 2:53am PST
Clear
Clear
 Wind from NW
Wind: NW 7 mph , 11 km/h
Temperature: 54°F , 12°C
Dew Point: 25°F , -4°C
Humidity: 33%
Barometer: 30.09 inHg , 1019 hPa
Clouds: Clear
Visibility: 10 miles , 16 km
2020/11/25 10:53 KPSP 251053Z AUTO 32006KT 10SM CLR 12/M04 A3009 RMK AO2 SLP188 T01221044
 
KSNA - Costa Mesa, California, USA
Distance from station: NW 76mi, 123km
Updated: Wed, 25-Nov-2020 2:53am PST
Clear
Clear
 Wind from calm
Wind: Calm
Temperature: 54°F , 12°C
Dew Point: 46°F , 8°C
Humidity: 77%
Barometer: 30.09 inHg , 1019 hPa
Clouds: Clear
Visibility: 9 miles , 14 km
2020/11/25 10:53 KSNA 251053Z AUTO 00000KT 9SM CLR 12/08 A3009 RMK AO2 SLP188 T01170083
KNJK - El Centro Naf, California, USA
Distance from station: E 79mi, 127km
Updated: Tue, 24-Nov-2020 10:56pm PST
NOT Current
Clear
Clear
 Wind from calm
Wind: Calm
Temperature: 52°F , 11°C
Dew Point: 27°F , -3°C
Humidity: 38%
Barometer: 30.08 inHg , 1018.6 hPa
Clouds: Clear
Visibility: 10 miles , 16 km
2020/11/25 06:56 KNJK 250656Z 00000KT 10SM CLR 11/M03 A3008 RMK SLP201 T01111033
 
KAJO - Corona Muni, California, USA
Distance from station: NNW 82mi, 132km
Updated: Wed, 25-Nov-2020 2:56am PST
Clear
Clear
 Wind from calm
Wind: Calm
Temperature: 39°F , 4°C
Dew Point: 37°F , 3°C
Humidity: 93%
Barometer: 30.11 inHg , 1019.6 hPa
Clouds: Clear
Visibility: 10 miles , 16 km
2020/11/25 10:56 KAJO 251056Z AUTO 00000KT 10SM CLR 04/03 A3011 RMK AO2 SLP193 T00440033